Time;durP1;ratioP1;P1;durP2;ratioP2;P2;SDS_P1;SDS_P2;PMS_P1;PMS_P2;Temp;Humidity;BMP_temperature;BMP_pressure;BME280_temperature;BME280_humidity;BME280_pressure;Samples;Min_cycle;Max_cycle;Signal;HPM_P1;HPM_P2
2022/10/12 00:01:07;;;;;;;15.00;8.48;;;;;;;11.01;59.68;100277.77;1807097;79;21006;-77
2022/10/12 00:03:34;;;;;;;12.23;7.90;;;;;;;10.96;60.05;100273.91;1804857;79;21034;-77
2022/10/12 00:06:13;;;;;;;12.15;8.15;;;;;;;10.92;60.18;100276.55;1812870;79;21000;-77
2022/10/12 00:08:42;;;;;;;12.13;8.58;;;;;;;10.87;60.52;100269.03;1815222;79;21074;-78
2022/10/12 00:11:13;;;;;;;13.03;8.43;;;;;;;10.81;60.91;100271.81;1814999;79;21137;-78
2022/10/12 00:13:39;;;;;;;11.80;9.20;;;;;;;10.75;61.03;100271.13;1815131;79;21086;-76
2022/10/12 00:16:07;;;;;;;10.50;8.18;;;;;;;10.65;61.35;100266.91;1814886;79;21012;-75
2022/10/12 00:18:35;;;;;;;11.70;8.28;;;;;;;10.63;61.91;100267.06;1815118;79;21027;-77
2022/10/12 00:21:13;;;;;;;17.00;8.85;;;;;;;10.57;62.47;100273.01;1823824;77;21021;-76
2022/10/12 00:23:40;;;;;;;13.08;8.88;;;;;;;10.51;62.66;100274.95;1804390;79;21134;-78
2022/10/12 00:26:15;;;;;;;9.88;7.83;;;;;;;10.43;62.93;100276.55;1804362;79;21530;-76
2022/10/12 00:28:42;;;;;;;13.28;8.70;;;;;;;10.38;63.62;100276.17;1804466;79;21057;-77
2022/10/12 00:31:14;;;;;;;14.05;8.35;;;;;;;10.32;63.58;100278.13;1804285;79;21038;-75
2022/10/12 00:33:41;;;;;;;11.60;8.35;;;;;;;10.29;63.89;100280.21;1804224;79;21552;-76
2022/10/12 00:36:23;;;;;;;10.98;7.83;;;;;;;10.24;64.30;100276.20;1806889;79;21229;-78
2022/10/12 00:38:50;;;;;;;13.45;8.23;;;;;;;10.21;64.52;100285.78;1807352;79;21001;-77
2022/10/12 00:41:18;;;;;;;13.90;9.15;;;;;;;10.18;65.06;100281.30;1807520;79;21070;-76
2022/10/12 00:43:48;;;;;;;12.65;8.38;;;;;;;10.15;65.21;100285.58;1807938;79;20978;-76
2022/10/12 00:46:23;;;;;;;14.00;9.35;;;;;;;10.12;65.57;100285.39;1807480;79;20986;-76
2022/10/12 00:49:07;;;;;;;15.32;9.48;;;;;;;10.10;65.85;100290.02;1807431;79;21135;-75
2022/10/12 00:51:34;;;;;;;13.48;9.60;;;;;;;10.09;66.11;100288.84;1856742;77;20990;-76
2022/10/12 00:54:04;;;;;;;12.10;8.70;;;;;;;10.07;66.83;100284.17;1862972;77;21076;-75
2022/10/12 00:56:33;;;;;;;12.03;9.45;;;;;;;10.01;67.01;100283.78;1862188;77;21517;-75
2022/10/12 00:59:04;;;;;;;13.43;8.38;;;;;;;9.96;67.62;100278.08;1860403;77;20985;-76
2022/10/12 01:01:32;;;;;;;11.22;8.90;;;;;;;9.99;68.47;100284.44;1860391;77;21056;-76
2022/10/12 01:04:00;;;;;;;12.95;9.63;;;;;;;10.08;67.86;100283.17;1859948;77;21126;-77
2022/10/12 01:06:26;;;;;;;12.37;8.75;;;;;;;10.06;68.31;100284.65;1860058;77;21045;-77
2022/10/12 01:08:54;;;;;;;13.25;9.90;;;;;;;10.04;68.39;100282.64;1828366;77;21014;-77
2022/10/12 01:11:21;;;;;;;16.12;10.23;;;;;;;10.01;68.56;100278.48;1860104;77;22108;-77
2022/10/12 01:13:47;;;;;;;19.87;11.00;;;;;;;10.00;68.69;100288.73;1860064;77;21135;-77
2022/10/12 01:16:23;;;;;;;15.65;11.10;;;;;;;9.99;69.05;100287.59;1859865;77;21056;-78
2022/10/12 01:18:59;;;;;;;14.33;10.75;;;;;;;9.95;69.23;100291.03;1860091;77;21512;-78
2022/10/12 01:21:27;;;;;;;14.45;10.25;;;;;;;9.89;69.74;100290.31;1853178;77;20987;-76
2022/10/12 01:24:08;;;;;;;15.05;10.15;;;;;;;9.91;69.95;100288.34;1860603;77;21027;-75
2022/10/12 01:27:04;;;;;;;15.85;10.43;;;;;;;10.04;70.26;100293.26;1860137;77;21936;-76
2022/10/12 01:29:53;;;;;;;14.83;10.93;;;;;;;10.01;70.23;100290.42;1859840;77;21029;-76
2022/10/12 01:32:34;;;;;;;14.95;10.50;;;;;;;9.97;70.57;100294.87;1860133;77;21064;-76
2022/10/12 01:35:38;;;;;;;17.15;11.40;;;;;;;9.93;70.90;100296.12;1860204;77;20997;-78
2022/10/12 01:38:28;;;;;;;;;;;;;;;9.87;71.17;100294.08;1862927;77;21044;-75
2022/10/12 01:41:00;;;;;;;14.33;10.53;;;;;;;9.77;71.68;100298.98;1824532;78;21746;-77
2022/10/12 01:43:37;;;;;;;19.15;11.63;;;;;;;9.68;71.95;100305.64;1826169;78;20957;-76
2022/10/12 01:46:21;;;;;;;13.45;10.58;;;;;;;9.61;72.10;100303.59;1828420;78;21576;-76
2022/10/12 01:48:50;;;;;;;13.95;9.65;;;;;;;9.68;72.32;100312.27;1828346;78;21034;-77
2022/10/12 01:51:39;;;;;;;13.35;9.23;;;;;;;9.77;72.34;100304.29;1826352;78;21037;-75
2022/10/12 01:54:30;;;;;;;12.23;9.17;;;;;;;9.75;72.76;100302.75;1826129;78;21765;-77
2022/10/12 01:57:02;;;;;;;15.28;9.98;;;;;;;9.64;73.19;100299.33;1826023;78;21053;-77
2022/10/12 01:59:49;;;;;;;13.08;9.80;;;;;;;9.60;73.33;100303.27;1826749;78;21060;-77
2022/10/12 02:02:58;;;;;;;15.93;9.68;;;;;;;9.57;73.49;100306.20;1826349;78;21076;-76
2022/10/12 02:05:36;;;;;;;12.28;8.08;;;;;;;9.53;73.94;100314.61;1826145;78;21048;-77
2022/10/12 02:08:25;;;;;;;12.47;9.70;;;;;;;9.58;73.92;100311.86;1826494;78;21129;-77
2022/10/12 02:10:57;;;;;;;12.90;8.80;;;;;;;9.67;73.87;100318.58;1825991;78;20965;-76
2022/10/12 02:13:25;;;;;;;11.63;9.08;;;;;;;9.62;74.10;100325.67;1824897;78;21065;-78
2022/10/12 02:15:51;;;;;;;14.80;9.30;;;;;;;9.60;74.20;100335.56;1826035;78;21595;-76
2022/10/12 02:18:19;;;;;;;12.80;8.98;;;;;;;9.57;74.25;100338.03;1826209;78;20980;-77
2022/10/12 02:20:47;;;;;;;16.02;9.60;;;;;;;9.57;74.28;100338.52;1826119;78;21211;-77
2022/10/12 02:23:14;;;;;;;12.33;9.00;;;;;;;9.53;74.49;100336.66;1825659;78;21112;-75
2022/10/12 02:25:40;;;;;;;13.80;8.50;;;;;;;9.55;74.46;100342.64;1826283;78;21017;-76
2022/10/12 02:28:12;;;;;;;11.90;8.33;;;;;;;9.70;74.36;100340.84;1826011;78;20982;-78
2022/10/12 02:30:47;;;;;;;13.68;9.83;;;;;;;9.69;74.39;100348.45;1826086;78;20970;-77
2022/10/12 02:33:49;;;;;;;13.95;10.03;;;;;;;9.67;74.46;100349.09;1825096;78;21249;-77
2022/10/12 02:36:21;;;;;;;12.65;9.15;;;;;;;9.60;74.73;100341.73;1850188;77;21553;-76
2022/10/12 02:39:12;;;;;;;14.90;9.60;;;;;;;9.52;75.25;100341.63;1862852;77;20990;-79
2022/10/12 02:41:43;;;;;;;12.45;8.85;;;;;;;9.43;75.35;100341.17;1861675;77;20981;-77
2022/10/12 02:44:12;;;;;;;12.33;8.43;;;;;;;9.37;75.54;100343.09;1860167;77;21113;-77
2022/10/12 02:46:38;;;;;;;17.17;8.58;;;;;;;9.43;75.58;100348.63;1860341;77;21109;-76
2022/10/12 02:49:04;;;;;;;13.85;8.60;;;;;;;9.57;75.36;100349.14;1859875;77;21599;-77
2022/10/12 02:51:31;;;;;;;12.33;8.15;;;;;;;9.56;75.58;100354.08;1830471;77;21049;-77
2022/10/12 02:53:58;;;;;;;13.20;8.45;;;;;;;9.51;75.73;100357.19;1830181;77;21017;-78
2022/10/12 02:56:24;;;;;;;12.15;9.33;;;;;;;9.45;75.95;100362.58;1860358;77;21009;-76
2022/10/12 02:58:53;;;;;;;12.75;9.45;;;;;;;9.40;76.31;100365.32;1860018;77;21256;-76
2022/10/12 03:01:19;;;;;;;12.93;9.90;;;;;;;9.31;76.46;100366.18;1860053;77;20966;-77
2022/10/12 03:03:46;;;;;;;11.38;8.28;;;;;;;9.23;76.63;100364.25;1860127;77;21505;-77
2022/10/12 03:06:13;;;;;;;12.88;8.78;;;;;;;9.27;76.73;100364.30;1833838;77;20989;-76
2022/10/12 03:08:39;;;;;;;13.03;9.23;;;;;;;9.36;76.64;100370.08;1826114;78;21039;-80
2022/10/12 03:11:08;;;;;;;12.78;8.80;;;;;;;9.35;76.73;100371.07;1826504;78;21200;-77
2022/10/12 03:13:34;;;;;;;11.30;8.58;;;;;;;9.35;77.02;100380.35;1826694;78;20973;-78
2022/10/12 03:16:03;;;;;;;11.25;8.80;;;;;;;9.32;77.19;100381.12;1826126;78;21076;-76
2022/10/12 03:18:31;;;;;;;14.78;8.50;;;;;;;9.25;77.33;100377.73;1825986;78;21068;-77
2022/10/12 03:20:59;;;;;;;13.68;8.28;;;;;;;9.18;77.73;100379.77;1825873;78;21411;-76
2022/10/12 03:23:26;;;;;;;11.88;8.63;;;;;;;9.20;77.70;100383.12;1826210;78;21692;-77
2022/10/12 03:25:52;;;;;;;13.25;8.80;;;;;;;9.30;77.66;100385.73;1826042;78;21630;-76
2022/10/12 03:28:19;;;;;;;11.70;8.58;;;;;;;9.28;77.83;100383.72;1826469;78;20998;-78
2022/10/12 03:30:45;;;;;;;16.30;10.05;;;;;;;9.21;78.14;100383.45;1830185;78;21009;-78
2022/10/12 03:33:12;;;;;;;13.48;9.10;;;;;;;9.18;78.35;100385.91;1829816;78;21025;-78
2022/10/12 03:35:38;;;;;;;12.87;9.40;;;;;;;9.13;78.49;100378.86;1820044;77;21131;-78
2022/10/12 03:38:05;;;;;;;16.23;9.33;;;;;;;9.09;78.79;100384.11;1807402;79;21537;-75
2022/10/12 03:40:31;;;;;;;12.05;8.25;;;;;;;9.10;78.78;100384.93;1807767;79;21672;-74
2022/10/12 03:42:57;;;;;;;12.90;8.85;;;;;;;9.21;78.61;100386.09;1807372;79;21557;-76
2022/10/12 03:45:24;;;;;;;13.58;9.58;;;;;;;9.21;78.73;100385.63;1807365;79;21096;-78
2022/10/12 03:47:50;;;;;;;14.40;9.63;;;;;;;9.19;78.91;100389.38;1807694;79;21038;-78
2022/10/12 03:50:17;;;;;;;15.48;9.93;;;;;;;9.17;78.96;100391.34;1807791;79;21005;-76
2022/10/12 03:52:43;;;;;;;13.38;8.98;;;;;;;9.13;79.19;100389.46;1807675;79;21494;-77
2022/10/12 03:55:12;;;;;;;14.33;9.83;;;;;;;9.14;79.10;100387.67;1807514;79;21033;-77
2022/10/12 03:57:40;;;;;;;11.78;9.13;;;;;;;9.23;79.04;100389.44;1807572;79;21005;-79
2022/10/12 04:00:09;;;;;;;16.25;9.83;;;;;;;9.16;79.25;100396.31;1807615;79;21246;-76
2022/10/12 04:02:39;;;;;;;14.60;9.88;;;;;;;9.09;79.54;100396.53;1807786;79;20986;-76
2022/10/12 04:05:06;;;;;;;14.10;9.90;;;;;;;9.02;79.76;100396.24;1828803;77;21067;-78
2022/10/12 04:07:34;;;;;;;13.25;9.93;;;;;;;8.96;79.95;100399.47;1860134;77;21009;-76
2022/10/12 04:10:01;;;;;;;13.03;9.75;;;;;;;8.95;79.83;100399.13;1860074;77;21056;-78
2022/10/12 04:12:27;;;;;;;11.70;9.25;;;;;;;9.05;79.69;100405.25;1860109;77;21193;-77
2022/10/12 04:14:55;;;;;;;13.10;10.13;;;;;;;9.00;79.83;100408.34;1860105;77;20985;-78
2022/10/12 04:17:22;;;;;;;15.78;10.30;;;;;;;8.95;80.09;100403.11;1860301;77;21076;-77
2022/10/12 04:19:48;;;;;;;13.70;10.98;;;;;;;8.92;80.41;100404.70;1860232;77;21014;-77
2022/10/12 04:22:15;;;;;;;11.78;8.23;;;;;;;8.85;80.74;100407.09;1862564;77;21308;-77
2022/10/12 04:24:41;;;;;;;13.83;8.98;;;;;;;8.81;80.83;100414.48;1863957;77;21026;-76
2022/10/12 04:27:07;;;;;;;13.40;10.03;;;;;;;8.87;80.75;100414.91;1861486;77;21076;-78
2022/10/12 04:29:36;;;;;;;16.32;10.28;;;;;;;8.78;81.02;100417.41;1860484;77;21005;-77
2022/10/12 04:32:02;;;;;;;13.00;10.75;;;;;;;8.65;81.53;100417.70;1860237;77;21048;-77
2022/10/12 04:34:29;;;;;;;17.85;10.93;;;;;;;8.56;81.85;100420.34;1852515;77;21191;-78
2022/10/12 04:36:55;;;;;;;13.38;10.13;;;;;;;8.51;82.24;100422.06;1824528;78;21540;-77
2022/10/12 04:39:22;;;;;;;16.77;10.05;;;;;;;8.59;82.30;100422.70;1823761;78;21013;-78
2022/10/12 04:41:50;;;;;;;12.30;9.60;;;;;;;8.59;82.38;100426.67;1823754;78;21017;-78
2022/10/12 04:44:16;;;;;;;13.53;11.00;;;;;;;8.52;82.71;100424.22;1823733;78;20982;-77
2022/10/12 04:46:42;;;;;;;16.05;10.95;;;;;;;8.45;83.20;100432.72;1824366;78;20998;-76
2022/10/12 04:49:09;;;;;;;16.10;10.45;;;;;;;8.38;83.44;100428.94;1824074;78;21131;-77
2022/10/12 04:51:36;;;;;;;14.38;10.00;;;;;;;8.41;83.58;100431.32;1823956;78;21540;-79
2022/10/12 04:54:02;;;;;;;17.90;10.63;;;;;;;8.54;83.57;100428.92;1824099;78;21032;-78
2022/10/12 04:56:29;;;;;;;15.38;11.03;;;;;;;8.52;83.55;100435.67;1823798;78;22074;-79
2022/10/12 04:58:55;;;;;;;15.88;10.75;;;;;;;8.55;83.79;100435.88;1824191;78;21044;-78
2022/10/12 05:01:21;;;;;;;13.75;9.58;;;;;;;8.60;83.68;100440.28;1823931;78;21097;-78
2022/10/12 05:03:48;;;;;;;13.83;10.90;;;;;;;8.62;83.70;100447.59;1823848;78;20972;-77
2022/10/12 05:06:15;;;;;;;14.65;10.72;;;;;;;8.69;83.49;100439.42;1844639;77;20978;-78
2022/10/12 05:08:41;;;;;;;15.40;9.95;;;;;;;8.87;83.13;100444.06;1824570;78;21017;-79
2022/10/12 05:11:08;;;;;;;12.98;10.75;;;;;;;8.95;83.02;100455.61;1824399;78;20997;-77
2022/10/12 05:13:36;;;;;;;14.28;11.10;;;;;;;8.99;82.85;100450.37;1825172;78;21009;-78
2022/10/12 05:16:04;;;;;;;14.07;11.12;;;;;;;9.02;82.67;100455.41;1826459;78;21261;-78
2022/10/12 05:18:30;;;;;;;12.95;10.68;;;;;;;9.04;82.54;100459.25;1825196;78;21025;-79
2022/10/12 05:20:58;;;;;;;15.50;10.38;;;;;;;9.15;82.30;100457.75;1824473;78;20966;-79
2022/10/12 05:23:25;;;;;;;15.90;11.22;;;;;;;9.32;81.87;100464.66;1824536;78;21025;-78
2022/10/12 05:25:55;;;;;;;17.27;12.13;;;;;;;9.32;81.74;100460.17;1824029;78;21100;-79
2022/10/12 05:28:21;;;;;;;16.57;10.50;;;;;;;9.34;81.58;100460.87;1830680;77;21014;-78
2022/10/12 05:30:50;;;;;;;15.58;11.57;;;;;;;9.36;81.49;100466.86;1854459;77;21029;-77
2022/10/12 05:33:16;;;;;;;15.03;10.75;;;;;;;9.37;81.34;100457.94;1811073;77;21006;-77
2022/10/12 05:35:44;;;;;;;14.18;10.45;;;;;;;9.50;81.16;100462.09;1804950;79;21065;-78
2022/10/12 05:38:10;;;;;;;13.60;10.45;;;;;;;9.71;80.66;100464.05;1807478;79;22383;-78
2022/10/12 05:40:37;;;;;;;15.08;10.58;;;;;;;9.81;80.42;100474.63;1807343;79;20991;-78
2022/10/12 05:43:03;;;;;;;15.93;11.78;;;;;;;9.84;80.01;100472.52;1807732;79;21506;-78
2022/10/12 05:45:29;;;;;;;17.52;12.65;;;;;;;9.84;79.90;100478.33;1808163;79;21018;-79
2022/10/12 05:47:56;;;;;;;15.53;10.75;;;;;;;9.86;79.75;100475.53;1807433;79;21038;-77
2022/10/12 05:50:22;;;;;;;16.90;11.10;;;;;;;9.87;79.54;100482.03;1807399;79;21224;-77
2022/10/12 05:52:48;;;;;;;18.00;10.95;;;;;;;9.97;79.38;100486.80;1807610;79;20994;-78
2022/10/12 05:55:15;;;;;;;15.10;11.00;;;;;;;10.03;79.46;100487.55;1807389;79;21516;-79
2022/10/12 05:57:41;;;;;;;14.33;11.38;;;;;;;10.10;79.31;100493.59;1807802;77;21025;-78
2022/10/12 06:00:09;;;;;;;15.85;12.20;;;;;;;10.19;79.28;100490.06;1807672;79;21029;-82
2022/10/12 06:02:37;;;;;;;15.23;11.35;;;;;;;10.28;78.95;100497.14;1807738;79;21092;-74
2022/10/12 06:05:05;;;;;;;12.73;10.35;;;;;;;10.37;78.63;100502.08;1807344;79;21037;-75
2022/10/12 06:07:32;;;;;;;15.80;10.50;;;;;;;10.52;78.25;100506.41;1808775;79;21037;-74
2022/10/12 06:09:59;;;;;;;17.25;12.00;;;;;;;10.72;77.81;100507.11;1808662;79;21427;-75
2022/10/12 06:12:26;;;;;;;16.02;11.25;;;;;;;10.80;77.66;100503.23;1807492;79;21052;-75
2022/10/12 06:14:53;;;;;;;16.57;12.07;;;;;;;10.86;77.42;100501.29;1807541;79;21083;-75
2022/10/12 06:17:20;;;;;;;14.47;10.53;;;;;;;10.96;76.98;100513.18;1807168;79;21018;-75
2022/10/12 06:19:47;;;;;;;15.13;12.13;;;;;;;11.02;76.81;100514.72;1807381;79;21002;-77
2022/10/12 06:22:13;;;;;;;15.38;11.15;;;;;;;11.10;76.49;100513.96;1807406;79;21633;-76
2022/10/12 06:24:40;;;;;;;18.23;10.98;;;;;;;11.15;76.09;100520.17;1807496;79;21068;-76
2022/10/12 06:27:06;;;;;;;14.18;10.70;;;;;;;11.23;75.66;100520.23;1807618;79;21208;-76
2022/10/12 06:29:34;;;;;;;14.68;12.07;;;;;;;11.33;75.16;100526.30;1818625;77;21056;-76
2022/10/12 06:32:01;;;;;;;17.17;12.03;;;;;;;11.34;75.24;100520.50;1816857;77;21044;-76
2022/10/12 06:34:27;;;;;;;15.32;11.70;;;;;;;11.37;74.92;100526.83;1825848;78;21054;-76
2022/10/12 06:36:54;;;;;;;17.82;11.20;;;;;;;11.36;74.91;100531.32;1825063;78;21473;-76
2022/10/12 06:39:23;;;;;;;17.50;12.53;;;;;;;11.34;74.67;100532.47;1823770;78;21110;-76
2022/10/12 06:41:49;;;;;;;15.25;12.37;;;;;;;11.28;74.90;100527.74;1823507;78;20986;-76
2022/10/12 06:44:21;;;;;;;13.30;10.98;;;;;;;11.31;74.99;100534.92;1823875;78;21021;-76
2022/10/12 06:46:45;;;;;;;15.40;11.10;;;;;;;11.46;74.71;100537.88;1823623;78;21004;-76
2022/10/12 06:49:12;;;;;;;19.40;12.58;;;;;;;11.67;74.26;100538.87;1823871;78;21005;-76
2022/10/12 06:51:39;;;;;;;14.20;12.30;;;;;;;11.71;73.76;100534.91;1824042;78;21076;-76
2022/10/12 06:54:05;;;;;;;17.60;12.50;;;;;;;11.72;73.76;100543.72;1823894;78;21647;-76
2022/10/12 06:56:32;;;;;;;16.62;13.25;;;;;;;11.76;73.50;100543.73;1824457;78;21072;-76
2022/10/12 06:58:59;;;;;;;18.23;12.78;;;;;;;11.74;73.34;100539.92;1847919;77;20990;-76
2022/10/12 07:01:25;;;;;;;16.30;13.35;;;;;;;11.71;73.36;100540.73;1855845;77;21107;-77
2022/10/12 07:03:52;;;;;;;16.05;12.15;;;;;;;11.71;73.60;100550.05;1855446;77;21465;-76
2022/10/12 07:06:18;;;;;;;19.67;13.70;;;;;;;11.76;73.46;100545.92;1855037;77;21041;-76
2022/10/12 07:08:45;;;;;;;15.70;13.38;;;;;;;11.93;73.08;100546.05;1854816;77;20982;-76
2022/10/12 07:11:13;;;;;;;16.67;12.73;;;;;;;12.01;72.92;100540.77;1854651;77;20995;-76
2022/10/12 07:13:40;;;;;;;17.77;13.65;;;;;;;12.06;72.80;100540.31;1854859;77;21037;-76
2022/10/12 07:16:09;;;;;;;15.48;12.98;;;;;;;12.13;72.68;100546.65;1854519;77;20962;-76
2022/10/12 07:18:35;;;;;;;16.82;13.15;;;;;;;12.19;72.37;100544.70;1854620;77;22041;-76
2022/10/12 07:21:02;;;;;;;14.33;12.37;;;;;;;12.23;72.26;100550.52;1854608;77;21064;-77
2022/10/12 07:23:31;;;;;;;17.60;12.60;;;;;;;12.25;72.08;100549.90;1828629;77;21081;-77
2022/10/12 07:25:57;;;;;;;19.23;13.55;;;;;;;12.29;71.86;100551.25;1791287;80;21093;-76
2022/10/12 07:28:24;;;;;;;17.50;13.30;;;;;;;12.32;71.90;100552.23;1791442;80;21128;-74
2022/10/12 07:30:51;;;;;;;22.90;13.60;;;;;;;12.37;71.87;100553.94;1791188;80;21105;-74
2022/10/12 07:33:18;;;;;;;18.67;11.10;;;;;;;12.47;71.77;100559.14;1791128;80;21100;-76
2022/10/12 07:35:54;;;;;;;14.95;11.65;;;;;;;12.61;71.43;100563.84;1791303;80;21015;-76
2022/10/12 07:38:20;;;;;;;15.58;11.93;;;;;;;12.80;71.05;100557.41;1788705;80;21042;-76
2022/10/12 07:40:47;;;;;;;16.77;12.00;;;;;;;12.90;70.87;100551.94;1788220;80;21558;-76
2022/10/12 07:43:13;;;;;;;15.65;12.33;;;;;;;12.98;70.71;100555.47;1788120;80;21065;-75
2022/10/12 07:45:40;;;;;;;17.50;12.58;;;;;;;13.06;70.10;100551.16;1788167;80;21053;-75
2022/10/12 07:48:06;;;;;;;17.45;12.03;;;;;;;13.08;70.17;100549.98;1787884;80;21011;-76
2022/10/12 07:52:20;;;;;;;17.12;11.95;;;;;;;13.27;69.82;100551.51;1872005;76;28109;-75
2022/10/12 07:54:48;;;;;;;20.37;12.18;;;;;;;13.31;69.59;100554.20;1827395;78;21061;-76
2022/10/12 07:57:14;;;;;;;17.87;12.07;;;;;;;13.42;69.20;100558.36;1826511;78;21513;-76
2022/10/12 07:59:40;;;;;;;12.33;10.72;;;;;;;13.49;68.90;100550.53;1826584;78;20875;-76
2022/10/12 08:02:10;;;;;;;18.12;12.00;;;;;;;13.59;68.50;100550.36;1826488;78;20887;-75
2022/10/12 08:04:36;;;;;;;15.83;11.90;;;;;;;13.67;68.31;100555.18;1828598;77;20993;-74
2022/10/12 08:07:04;;;;;;;19.55;12.53;;;;;;;13.75;68.24;100552.52;1838072;77;21029;-76
2022/10/12 08:09:34;;;;;;;16.17;12.35;;;;;;;13.90;68.04;100543.30;1826449;78;21113;-75
2022/10/12 08:12:00;;;;;;;17.92;12.30;;;;;;;14.05;67.60;100551.96;1826601;78;21512;-76
2022/10/12 08:14:27;;;;;;;12.88;10.15;;;;;;;14.19;67.31;100547.23;1826466;78;20990;-76
2022/10/12 08:16:55;;;;;;;15.38;10.78;;;;;;;14.39;66.94;100545.48;1826439;78;21026;-76
2022/10/12 08:19:21;;;;;;;13.40;9.98;;;;;;;14.61;66.32;100550.11;1826614;78;21548;-74
2022/10/12 08:21:49;;;;;;;15.75;11.25;;;;;;;14.77;65.76;100544.34;1826326;78;22549;-75
2022/10/12 08:24:15;;;;;;;15.32;9.95;;;;;;;14.92;65.32;100542.58;1826703;78;21180;-76
2022/10/12 08:26:42;;;;;;;12.40;8.80;;;;;;;15.08;65.01;100553.16;1826384;78;21560;-76
2022/10/12 08:29:09;;;;;;;9.80;8.30;;;;;;;15.27;64.56;100548.36;1826280;78;20982;-77
2022/10/12 08:31:35;;;;;;;11.03;9.00;;;;;;;15.47;64.05;100546.02;1826512;78;21005;-76
2022/10/12 08:34:03;;;;;;;14.60;8.93;;;;;;;15.66;63.26;100539.32;1826296;78;21230;-78
2022/10/12 08:36:29;;;;;;;10.00;7.97;;;;;;;15.84;62.61;100541.20;1845620;77;20988;-76
2022/10/12 08:38:56;;;;;;;9.10;7.03;;;;;;;16.04;62.16;100542.81;1846273;77;21000;-76
2022/10/12 08:41:33;;;;;;;10.00;7.37;;;;;;;16.31;61.23;100540.51;1846767;77;21055;-75
2022/10/12 08:44:22;;;;;;;8.95;6.22;;;;;;;16.44;60.23;100542.54;1847106;77;20965;-75
2022/10/12 08:46:49;;;;;;;10.85;6.50;;;;;;;16.48;59.66;100539.80;1847193;77;21473;-76
2022/10/12 08:49:18;;;;;;;8.78;6.40;;;;;;;16.61;59.30;100541.31;1846336;77;21523;-75
2022/10/12 08:51:52;;;;;;;10.28;5.67;;;;;;;16.82;58.71;100537.84;1846337;77;20993;-75
2022/10/12 08:54:21;;;;;;;11.48;6.85;;;;;;;17.07;58.30;100539.69;1846613;77;20989;-77
2022/10/12 08:56:50;;;;;;;7.37;4.90;;;;;;;17.44;57.18;100537.75;1846619;77;21055;-77
2022/10/12 08:59:17;;;;;;;9.25;5.25;;;;;;;17.90;56.22;100540.48;1819485;77;21108;-76
2022/10/12 09:02:22;;;;;;;8.60;5.33;;;;;;;18.42;53.93;100535.59;1845216;77;21113;-77
2022/10/12 09:05:01;;;;;;;8.45;5.72;;;;;;;18.81;53.29;100534.95;1842186;77;20969;-77
2022/10/12 09:07:38;;;;;;;5.95;4.92;;;;;;;19.52;52.40;100538.14;1846029;77;21480;-77
2022/10/12 09:10:45;;;;;;;9.93;5.70;;;;;;;20.21;50.91;100534.13;1846419;77;21555;-77
2022/10/12 09:13:22;;;;;;;6.60;5.65;;;;;;;20.77;49.46;100536.73;1846067;77;22263;-77
2022/10/12 09:16:05;;;;;;;5.53;4.97;;;;;;;21.30;48.24;100528.80;1808262;77;20976;-75
2022/10/12 09:18:40;;;;;;;10.00;5.67;;;;;;;21.88;46.86;100525.00;1846094;77;21504;-76
2022/10/12 09:21:11;;;;;;;6.20;4.58;;;;;;;22.57;45.40;100525.16;1845856;77;22128;-76
2022/10/12 09:23:38;;;;;;;8.13;4.87;;;;;;;23.20;44.07;100528.98;1846000;77;21063;-74
2022/10/12 09:26:18;;;;;;;7.05;5.37;;;;;;;23.67;43.19;100520.39;1818147;77;21806;-75
2022/10/12 09:28:51;;;;;;;9.78;4.90;;;;;;;24.19;42.21;100518.30;1846094;77;21492;-76
2022/10/12 09:32:01;;;;;;;5.78;4.20;;;;;;;24.47;41.54;100514.81;1846551;77;21017;-76
2022/10/12 09:34:28;;;;;;;7.75;4.28;;;;;;;24.75;40.72;100519.16;1832907;77;21033;-77
2022/10/12 09:36:54;;;;;;;8.75;4.60;;;;;;;25.07;39.18;100514.02;1830493;78;21057;-76
2022/10/12 09:39:28;;;;;;;7.50;4.25;;;;;;;25.26;38.63;100514.64;1830247;78;21056;-76
2022/10/12 09:41:54;;;;;;;6.60;3.67;;;;;;;25.71;37.67;100509.65;1828808;78;21476;-76
2022/10/12 09:44:45;;;;;;;8.95;4.05;;;;;;;26.32;36.57;100507.47;1829349;78;21033;-78
2022/10/12 09:47:28;;;;;;;10.85;3.92;;;;;;;26.71;35.64;100506.84;1829013;78;21072;-76
2022/10/12 09:49:57;;;;;;;6.53;3.50;;;;;;;26.70;35.39;100509.30;1829491;78;22279;-77
2022/10/12 09:52:31;;;;;;;5.92;3.90;;;;;;;26.22;35.30;100510.34;1817535;78;21483;-76
2022/10/12 09:55:00;;;;;;;6.67;3.50;;;;;;;25.65;35.63;100510.62;1797961;79;21069;-79
2022/10/12 09:57:38;;;;;;;6.90;3.40;;;;;;;24.97;36.07;100517.38;1814310;78;21053;-76
2022/10/12 10:00:37;;;;;;;7.55;3.52;;;;;;;24.40;36.50;100522.27;1814727;79;21715;-74
2022/10/12 10:03:03;;;;;;;4.47;3.02;;;;;;;23.88;36.99;100524.96;1831815;78;21009;-76
2022/10/12 10:05:33;;;;;;;7.42;4.05;;;;;;;23.53;37.62;100523.05;1834257;78;21870;-76
2022/10/12 10:08:22;;;;;;;6.85;3.50;;;;;;;23.41;37.88;100513.55;1834393;78;20981;-75
2022/10/12 10:10:58;;;;;;;7.33;3.65;;;;;;;23.15;38.06;100518.32;1834060;78;21509;-77
2022/10/12 10:13:28;;;;;;;8.65;3.92;;;;;;;22.74;38.42;100517.77;1833615;77;21033;-76
2022/10/12 10:16:07;;;;;;;5.42;3.30;;;;;;;22.45;38.82;100513.98;1834155;78;20992;-76
2022/10/12 10:18:55;;;;;;;7.20;3.02;;;;;;;22.13;38.96;100506.81;1834262;78;20994;-76
2022/10/12 10:21:36;;;;;;;7.42;3.72;;;;;;;21.76;38.73;100507.33;1834269;78;21014;-76
2022/10/12 10:24:05;;;;;;;7.15;3.40;;;;;;;21.26;39.21;100512.73;1834653;78;21017;-76
2022/10/12 10:27:00;;;;;;;6.80;3.12;;;;;;;20.90;39.56;100511.52;1834318;78;21492;-75
2022/10/12 10:29:38;;;;;;;6.25;2.80;;;;;;;20.70;40.01;100511.11;1835189;78;20997;-76
2022/10/12 10:32:28;;;;;;;5.65;3.00;;;;;;;21.00;40.06;100513.23;1824309;78;21125;-77
2022/10/12 10:35:05;;;;;;;5.47;2.90;;;;;;;21.80;39.46;100508.00;1814441;79;21034;-76
2022/10/12 10:37:31;;;;;;;5.95;2.80;;;;;;;23.10;38.21;100515.50;1813447;78;21009;-76
2022/10/12 10:39:58;;;;;;;5.83;3.00;;;;;;;24.32;36.65;100503.64;1814372;79;21064;-76
2022/10/12 10:42:31;;;;;;;6.97;3.50;;;;;;;25.27;34.88;100500.80;1814407;79;21021;-76
2022/10/12 10:45:05;;;;;;;6.40;3.20;;;;;;;26.04;34.09;100496.52;1814542;79;21106;-76
2022/10/12 10:47:32;;;;;;;8.93;3.98;;;;;;;26.90;33.40;100496.95;1814710;79;21096;-76
2022/10/12 10:50:01;;;;;;;7.80;3.60;;;;;;;27.76;32.63;100494.64;1814341;78;21069;-76
2022/10/12 10:52:33;;;;;;;6.78;3.15;;;;;;;28.54;31.80;100491.19;1814414;78;21025;-77
2022/10/12 10:55:21;;;;;;;4.12;3.00;;;;;;;28.86;31.13;100495.08;1813940;78;21033;-75
2022/10/12 10:58:01;;;;;;;7.05;3.65;;;;;;;28.66;30.75;100504.59;1814389;79;21120;-76
2022/10/12 11:00:29;;;;;;;8.00;3.72;;;;;;;27.94;31.08;100501.58;1814385;79;21057;-75
2022/10/12 11:02:59;;;;;;;6.40;3.42;;;;;;;27.51;31.58;100506.22;1829164;78;21071;-76
2022/10/12 11:05:30;;;;;;;7.40;3.58;;;;;;;27.53;31.65;100505.41;1834159;78;21025;-76
2022/10/12 11:08:01;;;;;;;7.10;3.83;;;;;;;27.96;31.48;100504.31;1834282;78;21052;-76
2022/10/12 11:10:45;;;;;;;6.03;3.40;;;;;;;28.35;30.91;100496.28;1834138;78;21153;-76
2022/10/12 11:13:22;;;;;;;5.78;3.45;;;;;;;28.42;30.31;100490.84;1834096;78;21026;-78
2022/10/12 11:16:23;;;;;;;6.33;3.85;;;;;;;28.35;30.28;100486.17;1834430;78;20985;-76
2022/10/12 11:18:53;;;;;;;8.90;3.60;;;;;;;28.12;30.31;100488.81;1834210;78;20973;-75
2022/10/12 11:21:33;;;;;;;7.35;4.00;;;;;;;27.28;31.02;100501.95;1834946;78;21525;-76
2022/10/12 11:24:16;;;;;;;7.45;3.40;;;;;;;26.60;31.64;100498.30;1835522;78;21265;-75
2022/10/12 11:26:58;;;;;;;;;;;;;;;25.83;32.29;100508.99;1837371;78;21057;-77
2022/10/12 11:29:25;;;;;;;6.78;3.52;;;;;;;25.03;33.07;100510.14;1834312;78;20502;-75
2022/10/12 11:32:02;;;;;;;7.75;3.00;;;;;;;24.19;33.98;100510.70;1811992;78;21529;-75
2022/10/12 11:34:33;;;;;;;5.90;3.20;;;;;;;23.54;34.80;100515.19;1814458;79;20999;-75
2022/10/12 11:37:00;;;;;;;8.20;3.20;;;;;;;22.98;35.35;100513.23;1814815;78;21053;-75
2022/10/12 11:39:53;;;;;;;6.90;3.83;;;;;;;22.43;36.10;100525.04;1814520;78;20971;-75